PWSweather.com
Personal Weather Stations
Station Observations
LUKAS
Viterbo, MartaIT 01010

ViterboMartaIT 01010

Lat: 42.5370989, Lon: 11.9204865

Elevation: 896

Station Type: La Crosse WS 2305

http://www.meteomarta.altervista.org/

Latest ConditionsUpdated 12:00:01 PM GMT+01:01 Thursday, Nov 23, 2017
Currently Today's Max Today's Min Today's Average
Temperature 55.2°F12.9°C 55.2°F12.9°C 45.0°F7.2°C 49.8°F9.9°C
Dew Point 51.1°F10.6°C 51.9°F11.1°C 42.7°F5.9°C 47.5°F8.6°C
Winds 2.0 mph N3.2 kmh N 3.0 mph NNW4.8 kmh NNW - 0.8 mph 1.3 kmh
Wind Gusts 3.0 mph4.8 kmh 6.0 mph9.7 kmh - -
Humidity 86% 93% 86% 92%
Pressure 30.11 in1019.6 mb 30.13 in1020.3 mb 30.06 in1017.9 mb -
Hour Temp Dew Point Humidity Winds Wind Gusts Pressure Precip Precip Rate Daily Precip Total
12:00 PM 55.2°F12.9°C 51.1°F10.6°C 86% 2.0 mph N3.2 kmh N 3.0 mph4.8 kmh 30.11 in1019.6 mb - 0.00 in0.0 mm 0.00 in0.0 mm
11:50 AM 55.1°F12.8°C 51.6°F10.9°C 88% 2.0 mph 3.2 kmh 3.0 mph4.8 kmh 30.11 in1019.6 mb - 0.00 in0.0 mm 0.00 in0.0 mm
11:40 AM 55.0°F12.8°C 51.9°F11.1°C 89% Calm Calm 2.0 mph3.2 kmh 30.11 in1019.6 mb - 0.00 in0.0 mm 0.00 in0.0 mm
11:30 AM 54.3°F12.4°C 51.4°F10.8°C 90% Calm Calm -- 30.12 in1020.0 mb - 0.00 in0.0 mm 0.00 in0.0 mm
11:20 AM 53.8°F12.1°C 50.9°F10.5°C 90% Calm Calm -- 30.12 in1020.0 mb - 0.00 in0.0 mm 0.00 in0.0 mm
11:10 AM 53.4°F11.9°C 50.9°F10.5°C 91% Calm Calm -- 30.12 in1020.0 mb - 0.00 in0.0 mm 0.00 in0.0 mm
11:00 AM 53.4°F11.9°C 50.9°F10.5°C 91% 1.0 mph 1.6 kmh 2.0 mph3.2 kmh 30.12 in1020.0 mb - 0.00 in0.0 mm 0.00 in0.0 mm
10:50 AM 53.2°F11.8°C 51.0°F10.6°C 92% 1.0 mph 1.6 kmh 1.0 mph1.6 kmh 30.13 in1020.3 mb - 0.00 in0.0 mm 0.00 in0.0 mm
10:40 AM 53.2°F11.8°C 51.0°F10.6°C 92% Calm Calm 1.0 mph1.6 kmh 30.13 in1020.3 mb - 0.00 in0.0 mm 0.00 in0.0 mm
10:30 AM 52.9°F11.6°C 50.6°F10.3°C 92% Calm Calm 1.0 mph1.6 kmh 30.13 in1020.3 mb - 0.00 in0.0 mm 0.00 in0.0 mm
10:20 AM 52.5°F11.4°C 50.3°F10.2°C 92% 2.0 mph 3.2 kmh 2.0 mph3.2 kmh 30.13 in1020.3 mb - 0.00 in0.0 mm 0.00 in0.0 mm
10:10 AM 52.3°F11.3°C 50.1°F10.1°C 92% 3.0 mph NNW4.8 kmh NNW 3.0 mph4.8 kmh 30.13 in1020.3 mb - 0.00 in0.0 mm 0.00 in0.0 mm
10:00 AM 52.3°F11.3°C 50.4°F10.2°C 93% 1.0 mph NNW1.6 kmh NNW 2.0 mph3.2 kmh 30.12 in1020.0 mb - 0.00 in0.0 mm 0.00 in0.0 mm
09:50 AM 52.3°F11.3°C 50.4°F10.2°C 93% 2.0 mph NNW3.2 kmh NNW 3.0 mph4.8 kmh 30.12 in1020.0 mb - 0.00 in0.0 mm 0.00 in0.0 mm
09:40 AM 52.2°F11.2°C 50.2°F10.1°C 93% 1.0 mph NNW1.6 kmh NNW 3.0 mph4.8 kmh 30.12 in1020.0 mb - 0.00 in0.0 mm 0.00 in0.0 mm
09:30 AM 52.3°F11.3°C 50.4°F10.2°C 93% 1.0 mph NNW1.6 kmh NNW 2.0 mph3.2 kmh 30.11 in1019.6 mb - 0.00 in0.0 mm 0.00 in0.0 mm
09:20 AM 52.5°F11.4°C 50.6°F10.3°C 93% 1.0 mph NW1.6 kmh NW 2.0 mph3.2 kmh 30.11 in1019.6 mb - 0.00 in0.0 mm 0.00 in0.0 mm
09:10 AM 52.3°F11.3°C 50.3°F10.2°C 93% 1.0 mph W1.6 kmh W 5.0 mph8.0 kmh 30.11 in1019.6 mb - 0.00 in0.0 mm 0.00 in0.0 mm
09:00 AM 51.6°F10.9°C 49.7°F9.8°C 93% 2.0 mph WSW3.2 kmh WSW 3.0 mph4.8 kmh 30.11 in1019.6 mb - 0.00 in0.0 mm 0.00 in0.0 mm
08:50 AM 51.4°F10.8°C 49.5°F9.7°C 93% Calm Calm -- 30.11 in1019.6 mb - 0.00 in0.0 mm 0.00 in0.0 mm
08:40 AM 51.0°F10.6°C 49.1°F9.5°C 93% 1.0 mph SW1.6 kmh SW -- 30.11 in1019.6 mb - 0.00 in0.0 mm 0.00 in0.0 mm
08:30 AM 50.7°F10.4°C 48.8°F9.3°C 93% 1.0 mph SW1.6 kmh SW 2.0 mph3.2 kmh 30.11 in1019.6 mb - 0.00 in0.0 mm 0.00 in0.0 mm
08:20 AM 50.4°F10.2°C 48.4°F9.1°C 93% Calm Calm 1.0 mph1.6 kmh 30.10 in1019.3 mb - 0.00 in0.0 mm 0.00 in0.0 mm
08:10 AM 49.8°F9.9°C 47.9°F8.8°C 93% Calm Calm -- 30.10 in1019.3 mb - 0.00 in0.0 mm 0.00 in0.0 mm
08:00 AM 49.1°F9.5°C 47.2°F8.4°C 93% 2.0 mph SW3.2 kmh SW 2.0 mph3.2 kmh 30.10 in1019.3 mb - 0.00 in0.0 mm 0.00 in0.0 mm
07:50 AM 46.7°F8.2°C 44.8°F7.1°C 93% 1.0 mph SW1.6 kmh SW 2.0 mph3.2 kmh 30.10 in1019.3 mb - 0.00 in0.0 mm 0.00 in0.0 mm
07:40 AM 46.8°F8.2°C 44.9°F7.2°C 93% Calm Calm 1.0 mph1.6 kmh 30.09 in1019.0 mb - 0.00 in0.0 mm 0.00 in0.0 mm
07:30 AM 47.8°F8.8°C 45.9°F7.7°C 93% 1.0 mph SW1.6 kmh SW 2.0 mph3.2 kmh 30.09 in1019.0 mb - 0.00 in0.0 mm 0.00 in0.0 mm
07:20 AM 47.8°F8.8°C 45.8°F7.7°C 93% 2.0 mph SW3.2 kmh SW 3.0 mph4.8 kmh 30.09 in1019.0 mb - 0.00 in0.0 mm 0.00 in0.0 mm
07:10 AM 48.0°F8.9°C 46.1°F7.8°C 93% Calm Calm 1.0 mph1.6 kmh 30.08 in1018.6 mb - 0.00 in0.0 mm 0.00 in0.0 mm
07:00 AM 48.0°F8.9°C 46.1°F7.8°C 93% 2.0 mph SW3.2 kmh SW 5.0 mph8.0 kmh 30.08 in1018.6 mb - 0.00 in0.0 mm 0.00 in0.0 mm
06:50 AM 47.8°F8.8°C 45.9°F7.7°C 93% 2.0 mph SW3.2 kmh SW 6.0 mph9.7 kmh 30.08 in1018.6 mb - 0.00 in0.0 mm 0.00 in0.0 mm
06:40 AM 46.6°F8.1°C 44.4°F6.9°C 92% 2.0 mph SSW3.2 kmh SSW 5.0 mph8.0 kmh 30.07 in1018.3 mb - 0.00 in0.0 mm 0.00 in0.0 mm
06:30 AM 45.4°F7.4°C 43.2°F6.2°C 92% 1.0 mph SSW1.6 kmh SSW 2.0 mph3.2 kmh 30.07 in1018.3 mb - 0.00 in0.0 mm 0.00 in0.0 mm
06:20 AM 45.0°F7.2°C 42.8°F6.0°C 92% 2.0 mph SSW3.2 kmh SSW 2.0 mph3.2 kmh 30.07 in1018.3 mb - 0.00 in0.0 mm 0.00 in0.0 mm
06:10 AM 46.0°F7.8°C 43.8°F6.6°C 92% 1.0 mph SSW1.6 kmh SSW 2.0 mph3.2 kmh 30.07 in1018.3 mb - 0.00 in0.0 mm 0.00 in0.0 mm
06:00 AM 46.1°F7.8°C 43.9°F6.6°C 92% 1.0 mph SSW1.6 kmh SSW 2.0 mph3.2 kmh 30.07 in1018.3 mb - 0.00 in0.0 mm 0.00 in0.0 mm
05:50 AM 45.1°F7.3°C 42.7°F5.9°C 91% 1.0 mph SSW1.6 kmh SSW 2.0 mph3.2 kmh 30.07 in1018.3 mb - 0.00 in0.0 mm 0.00 in0.0 mm
05:40 AM 45.7°F7.6°C 43.5°F6.4°C 92% 1.0 mph SSW1.6 kmh SSW 1.0 mph1.6 kmh 30.07 in1018.3 mb - 0.00 in0.0 mm 0.00 in0.0 mm
05:30 AM 45.7°F7.6°C 43.2°F6.2°C 91% 1.0 mph SSW1.6 kmh SSW 1.0 mph1.6 kmh 30.07 in1018.3 mb - 0.00 in0.0 mm 0.00 in0.0 mm
05:20 AM 45.7°F7.6°C 43.2°F6.2°C 91% 1.0 mph SSW1.6 kmh SSW 1.0 mph1.6 kmh 30.07 in1018.3 mb - 0.00 in0.0 mm 0.00 in0.0 mm
05:10 AM 46.2°F7.9°C 43.7°F6.5°C 91% 1.0 mph SSW1.6 kmh SSW 2.0 mph3.2 kmh 30.06 in1017.9 mb - 0.00 in0.0 mm 0.00 in0.0 mm
05:00 AM 46.2°F7.9°C 43.7°F6.5°C 91% 1.0 mph SSW1.6 kmh SSW 2.0 mph3.2 kmh 30.07 in1018.3 mb - 0.00 in0.0 mm 0.00 in0.0 mm
04:50 AM 47.7°F8.7°C 45.2°F7.3°C 91% Calm Calm -- 30.07 in1018.3 mb - 0.00 in0.0 mm 0.00 in0.0 mm
04:40 AM 48.7°F9.3°C 46.5°F8.1°C 92% Calm Calm 1.0 mph1.6 kmh 30.07 in1018.3 mb - 0.00 in0.0 mm 0.00 in0.0 mm
04:30 AM 49.0°F9.4°C 46.7°F8.2°C 92% 1.0 mph SSW1.6 kmh SSW 3.0 mph4.8 kmh 30.07 in1018.3 mb - 0.00 in0.0 mm 0.00 in0.0 mm
04:20 AM 48.9°F9.4°C 46.4°F8.0°C 91% Calm Calm -- 30.08 in1018.6 mb - 0.00 in0.0 mm 0.00 in0.0 mm
04:10 AM 48.9°F9.4°C 46.4°F8.0°C 91% Calm Calm -- 30.07 in1018.3 mb - 0.00 in0.0 mm 0.00 in0.0 mm
04:00 AM 48.4°F9.1°C 45.9°F7.7°C 91% Calm Calm -- 30.07 in1018.3 mb - 0.00 in0.0 mm 0.00 in0.0 mm
03:50 AM 47.9°F8.8°C 45.4°F7.4°C 91% Calm Calm -- 30.08 in1018.6 mb - 0.00 in0.0 mm 0.00 in0.0 mm
03:40 AM 47.8°F8.8°C 45.3°F7.4°C 91% 1.0 mph SSW1.6 kmh SSW 1.0 mph1.6 kmh 30.07 in1018.3 mb - 0.00 in0.0 mm 0.00 in0.0 mm
03:30 AM 48.3°F9.1°C 45.8°F7.7°C 91% 1.0 mph SSW1.6 kmh SSW 2.0 mph3.2 kmh 30.07 in1018.3 mb - 0.00 in0.0 mm 0.00 in0.0 mm
03:20 AM 48.7°F9.3°C 46.2°F7.9°C 91% Calm Calm 1.0 mph1.6 kmh 30.08 in1018.6 mb - 0.00 in0.0 mm 0.00 in0.0 mm
03:10 AM 49.3°F9.6°C 46.8°F8.2°C 91% Calm Calm -- 30.08 in1018.6 mb - 0.00 in0.0 mm 0.00 in0.0 mm
03:00 AM 50.2°F10.1°C 47.6°F8.7°C 91% Calm Calm -- 30.08 in1018.6 mb - 0.00 in0.0 mm 0.00 in0.0 mm
02:50 AM 50.7°F10.4°C 48.2°F9.0°C 91% Calm Calm -- 30.08 in1018.6 mb - 0.00 in0.0 mm 0.00 in0.0 mm
02:40 AM 50.7°F10.4°C 48.5°F9.2°C 92% Calm Calm -- 30.08 in1018.6 mb - 0.00 in0.0 mm 0.00 in0.0 mm
02:30 AM 50.7°F10.4°C 48.5°F9.2°C 92% 1.0 mph SSW1.6 kmh SSW 2.0 mph3.2 kmh 30.08 in1018.6 mb - 0.00 in0.0 mm 0.00 in0.0 mm
02:20 AM 50.7°F10.4°C 48.5°F9.2°C 92% Calm Calm 2.0 mph3.2 kmh 30.09 in1019.0 mb - 0.00 in0.0 mm 0.00 in0.0 mm
02:10 AM 50.5°F10.3°C 48.3°F9.1°C 92% Calm Calm 1.0 mph1.6 kmh 30.08 in1018.6 mb - 0.00 in0.0 mm 0.00 in0.0 mm
02:00 AM 50.4°F10.2°C 48.1°F8.9°C 92% 1.0 mph SSW1.6 kmh SSW 1.0 mph1.6 kmh 30.08 in1018.6 mb - 0.00 in0.0 mm 0.00 in0.0 mm
01:50 AM 50.1°F10.1°C 47.9°F8.8°C 92% 2.0 mph SSW3.2 kmh SSW 2.0 mph3.2 kmh 30.08 in1018.6 mb - 0.00 in0.0 mm 0.00 in0.0 mm
01:40 AM 50.2°F10.1°C 47.7°F8.7°C 91% Calm Calm 1.0 mph1.6 kmh 30.08 in1018.6 mb - 0.00 in0.0 mm 0.00 in0.0 mm
01:30 AM 50.2°F10.1°C 47.7°F8.7°C 91% Calm Calm -- 30.07 in1018.3 mb - 0.00 in0.0 mm 0.00 in0.0 mm
01:20 AM 50.2°F10.1°C 47.7°F8.7°C 91% 1.0 mph SSW1.6 kmh SSW 2.0 mph3.2 kmh 30.08 in1018.6 mb - 0.00 in0.0 mm 0.00 in0.0 mm
01:10 AM 49.8°F9.9°C 47.3°F8.5°C 91% Calm Calm -- 30.08 in1018.6 mb - 0.00 in0.0 mm 0.00 in0.0 mm
01:00 AM 49.8°F9.9°C 47.3°F8.5°C 91% Calm Calm -- 30.08 in1018.6 mb - 0.00 in0.0 mm 0.00 in0.0 mm
12:50 AM 49.9°F9.9°C 47.4°F8.6°C 91% Calm Calm 1.0 mph1.6 kmh 30.08 in1018.6 mb - 0.00 in0.0 mm 0.00 in0.0 mm
12:40 AM 50.2°F10.1°C 47.7°F8.7°C 91% 1.0 mph SSW1.6 kmh SSW 1.0 mph1.6 kmh 30.08 in1018.6 mb - 0.00 in0.0 mm 0.00 in0.0 mm
12:30 AM 50.2°F10.1°C 47.7°F8.7°C 91% 1.0 mph SSW1.6 kmh SSW 3.0 mph4.8 kmh 30.08 in1018.6 mb - 0.00 in0.0 mm 0.00 in0.0 mm
12:20 AM 50.2°F10.1°C 47.7°F8.7°C 91% Calm Calm 1.0 mph1.6 kmh 30.08 in1018.6 mb - 0.00 in0.0 mm 0.00 in0.0 mm
12:10 AM 50.0°F10.0°C 47.5°F8.6°C 91% Calm Calm -- 30.08 in1018.6 mb - 0.00 in0.0 mm 0.00 in0.0 mm
12:00 AM 50.4°F10.2°C 47.8°F8.8°C 91% Calm Calm -- 30.08 in1018.6 mb - 0.00 in0.0 mm 0.00 in0.0 mm